Time,TemperatureF,DewpointF,PressureIn,WindDirection,WindDirectionDegrees,WindSpeedMPH,WindSpeedGustMPH,Humidity,HourlyPrecipIn,Conditions,Clouds,dailyrainin,SoftwareType,DateUTC
2013-06-18 00:05:00,60.6,43.3,29.94,South,180,0.0,0.0,53,0.00,,,0.00,WUHU216HW,2013-06-18 06:05:00,
2013-06-18 00:09:00,60.4,43.1,29.94,South,180,0.0,0.0,53,0.00,,,0.00,WUHU216HW,2013-06-18 06:09:00,
2013-06-18 00:15:00,59.9,42.6,29.94,South,180,0.0,0.0,53,0.00,,,0.00,WUHU216HW,2013-06-18 06:15:00,
2013-06-18 00:20:00,59.9,42.2,29.94,South,180,0.0,0.0,52,0.00,,,0.00,WUHU216HW,2013-06-18 06:20:00,
2013-06-18 00:25:00,59.9,41.7,29.94,South,180,0.0,0.0,51,0.00,,,0.00,WUHU216HW,2013-06-18 06:25:00,
2013-06-18 00:30:00,59.9,42.2,29.94,South,180,0.0,0.0,52,0.00,,,0.00,WUHU216HW,2013-06-18 06:30:00,
2013-06-18 00:35:00,59.7,42.0,29.93,South,180,0.0,0.0,53,0.00,,,0.00,WUHU216HW,2013-06-18 06:35:00,
2013-06-18 00:40:00,59.9,43.6,29.94,South,180,0.0,0.0,55,0.00,,,0.00,WUHU216HW,2013-06-18 06:40:00,
2013-06-18 00:45:00,59.9,43.8,29.94,South,180,0.0,0.0,55,0.00,,,0.00,WUHU216HW,2013-06-18 06:45:00,
2013-06-18 00:50:00,59.9,42.6,29.94,South,180,0.0,0.0,53,0.00,,,0.00,WUHU216HW,2013-06-18 06:50:00,
2013-06-18 00:55:00,59.5,41.4,29.93,South,180,0.0,0.0,51,0.00,,,0.00,WUHU216HW,2013-06-18 06:55:00,
2013-06-18 01:00:00,59.3,41.2,29.93,South,180,0.0,0.0,51,0.00,,,0.00,WUHU216HW,2013-06-18 07:00:00,
2013-06-18 01:05:00,59.3,41.2,29.94,South,180,0.0,0.0,51,0.00,,,0.00,WUHU216HW,2013-06-18 07:05:00,
2013-06-18 01:10:00,58.8,41.2,29.94,South,180,0.0,0.0,52,0.00,,,0.00,WUHU216HW,2013-06-18 07:10:00,
2013-06-18 01:16:00,58.8,41.2,29.93,South,180,0.0,0.0,52,0.00,,,0.00,WUHU216HW,2013-06-18 07:16:00,
2013-06-18 01:21:00,58.4,40.9,29.93,South,180,0.0,0.0,52,0.00,,,0.00,WUHU216HW,2013-06-18 07:21:00,
2013-06-18 01:26:00,57.9,40.8,29.93,South,180,0.0,0.0,53,0.00,,,0.00,WUHU216HW,2013-06-18 07:26:00,
2013-06-18 01:31:00,57.5,41.9,29.93,South,180,0.0,0.0,56,0.00,,,0.00,WUHU216HW,2013-06-18 07:31:00,
2013-06-18 01:36:00,57.3,42.2,29.93,South,180,0.0,0.0,57,0.00,,,0.00,WUHU216HW,2013-06-18 07:36:00,
2013-06-18 01:41:00,57.3,43.2,29.92,South,180,0.0,0.0,59,0.00,,,0.00,WUHU216HW,2013-06-18 07:41:00,
2013-06-18 01:46:00,57.3,43.2,29.92,South,180,0.0,0.0,59,0.00,,,0.00,WUHU216HW,2013-06-18 07:46:00,
2013-06-18 01:51:00,57.5,42.9,29.92,SSW,203,0.0,0.0,58,0.00,,,0.00,WUHU216HW,2013-06-18 07:51:00,
2013-06-18 01:56:00,57.7,42.1,29.92,SSW,203,0.0,0.0,56,0.00,,,0.00,WUHU216HW,2013-06-18 07:56:00,
2013-06-18 02:01:00,57.5,41.5,29.92,SW,225,0.0,0.0,55,0.00,,,0.00,WUHU216HW,2013-06-18 08:01:00,
2013-06-18 02:06:00,57.5,41.5,29.92,SW,225,0.0,0.0,55,0.00,,,0.00,WUHU216HW,2013-06-18 08:06:00,
2013-06-18 02:11:00,57.5,41.5,29.92,SW,225,0.0,0.0,55,0.00,,,0.00,WUHU216HW,2013-06-18 08:11:00,
2013-06-18 02:16:00,57.7,41.1,29.92,SW,225,0.0,0.0,54,0.00,,,0.00,WUHU216HW,2013-06-18 08:16:00,
2013-06-18 02:21:00,57.5,41.5,29.92,SW,225,0.0,0.0,55,0.00,,,0.00,WUHU216HW,2013-06-18 08:21:00,
2013-06-18 02:26:00,57.0,41.0,29.92,SW,225,0.0,0.0,55,0.00,,,0.00,WUHU216HW,2013-06-18 08:26:00,
2013-06-18 02:32:00,56.6,41.5,29.91,SW,225,0.0,0.0,57,0.00,,,0.00,WUHU216HW,2013-06-18 08:32:00,
2013-06-18 02:37:00,56.3,41.2,29.91,SW,225,0.0,0.0,57,0.00,,,0.00,WUHU216HW,2013-06-18 08:37:00,
2013-06-18 02:42:00,55.9,40.8,29.91,SW,225,0.0,0.0,57,0.00,,,0.00,WUHU216HW,2013-06-18 08:42:00,
2013-06-18 02:47:00,55.7,41.6,29.91,SW,225,0.0,0.0,59,0.00,,,0.00,WUHU216HW,2013-06-18 08:47:00,
2013-06-18 02:52:00,55.5,43.1,29.90,SW,225,0.0,0.0,63,0.00,,,0.00,WUHU216HW,2013-06-18 08:52:00,
2013-06-18 02:57:00,55.5,42.2,29.90,SW,225,0.0,0.0,61,0.00,,,0.00,WUHU216HW,2013-06-18 08:57:00,
2013-06-18 03:02:00,55.5,41.9,29.90,SW,225,0.0,0.0,60,0.00,,,0.00,WUHU216HW,2013-06-18 09:02:00,
2013-06-18 03:07:00,55.7,42.0,29.90,North,0,0.0,0.0,60,0.00,,,0.00,WUHU216HW,2013-06-18 09:07:00,
2013-06-18 03:12:00,55.7,41.6,29.90,SW,225,0.0,0.0,59,0.00,,,0.00,WUHU216HW,2013-06-18 09:12:00,
2013-06-18 03:17:00,55.2,41.5,29.91,SW,225,0.0,0.0,60,0.00,,,0.00,WUHU216HW,2013-06-18 09:17:00,
2013-06-18 03:22:00,55.0,41.3,29.91,SW,225,0.0,0.0,60,0.00,,,0.00,WUHU216HW,2013-06-18 09:22:00,
2013-06-18 03:27:00,55.2,41.5,29.90,SW,225,0.0,0.0,60,0.00,,,0.00,WUHU216HW,2013-06-18 09:27:00,
2013-06-18 03:32:00,55.2,41.5,29.90,SW,225,0.0,0.0,60,0.00,,,0.00,WUHU216HW,2013-06-18 09:32:00,
2013-06-18 03:37:00,55.0,41.3,29.90,SW,225,0.0,0.0,60,0.00,,,0.00,WUHU216HW,2013-06-18 09:37:00,
2013-06-18 03:42:00,54.3,41.1,29.91,SW,225,0.0,0.0,61,0.00,,,0.00,WUHU216HW,2013-06-18 09:42:00,
2013-06-18 03:47:00,53.9,42.4,29.90,SSW,203,0.0,2.4,65,0.00,,,0.00,WUHU216HW,2013-06-18 09:47:00,
2013-06-18 03:52:00,54.8,42.8,29.90,SSW,203,3.5,3.5,64,0.00,,,0.00,WUHU216HW,2013-06-18 09:52:00,
2013-06-18 03:57:00,55.7,42.4,29.89,SSW,203,0.0,3.5,61,0.00,,,0.00,WUHU216HW,2013-06-18 09:57:00,
2013-06-18 04:03:00,56.1,42.4,29.89,South,180,0.0,3.1,60,0.00,,,0.00,WUHU216HW,2013-06-18 10:03:00,
2013-06-18 04:08:00,55.0,41.4,29.90,South,180,0.0,0.0,61,0.00,,,0.00,WUHU216HW,2013-06-18 10:08:00,
2013-06-18 04:13:00,53.9,42.0,29.90,South,180,0.0,0.0,64,0.00,,,0.00,WUHU216HW,2013-06-18 10:13:00,
2013-06-18 04:18:00,53.4,41.9,29.90,South,180,0.0,0.0,65,0.00,,,0.00,WUHU216HW,2013-06-18 10:18:00,
2013-06-18 04:23:00,53.2,41.7,29.90,South,180,0.0,0.0,65,0.00,,,0.00,WUHU216HW,2013-06-18 10:23:00,
2013-06-18 04:28:00,53.2,42.9,29.90,South,180,0.0,0.0,68,0.00,,,0.00,WUHU216HW,2013-06-18 10:28:00,
2013-06-18 04:33:00,53.4,42.6,29.90,South,180,0.0,0.0,67,0.00,,,0.00,WUHU216HW,2013-06-18 10:33:00,
2013-06-18 04:38:00,53.2,42.9,29.89,South,180,0.0,0.0,68,0.00,,,0.00,WUHU216HW,2013-06-18 10:38:00,
2013-06-18 04:43:00,52.8,42.6,29.90,South,180,0.0,0.0,68,0.00,,,0.00,WUHU216HW,2013-06-18 10:43:00,
2013-06-18 04:48:00,52.8,42.6,29.89,SW,225,0.0,0.0,68,0.00,,,0.00,WUHU216HW,2013-06-18 10:48:00,
2013-06-18 04:53:00,53.4,42.6,29.89,SSW,203,0.0,0.0,67,0.00,,,0.00,WUHU216HW,2013-06-18 10:53:00,
2013-06-18 04:58:00,54.1,42.9,29.89,SSW,203,0.0,0.0,66,0.00,,,0.00,WUHU216HW,2013-06-18 10:58:00,
2013-06-18 05:03:00,53.7,42.2,29.89,SSW,203,0.0,0.0,65,0.00,,,0.00,WUHU216HW,2013-06-18 11:03:00,
2013-06-18 05:08:00,53.2,42.5,29.90,SSW,203,0.0,0.0,68,0.00,,,0.00,WUHU216HW,2013-06-18 11:08:00,
2013-06-18 05:13:00,53.2,43.3,29.90,SSW,203,0.0,0.0,69,0.00,,,0.00,WUHU216HW,2013-06-18 11:13:00,
2013-06-18 05:18:00,52.7,42.0,29.90,SSW,203,0.0,0.0,67,0.00,,,0.00,WUHU216HW,2013-06-18 11:18:00,
2013-06-18 05:23:00,52.1,42.3,29.90,SSW,203,0.0,0.0,69,0.00,,,0.00,WUHU216HW,2013-06-18 11:23:00,
2013-06-18 05:29:00,52.3,42.9,29.90,SW,225,0.0,0.0,70,0.00,,,0.00,WUHU216HW,2013-06-18 11:29:00,
2013-06-18 05:34:00,52.8,42.6,29.90,SW,225,0.0,0.0,68,0.00,,,0.00,WUHU216HW,2013-06-18 11:34:00,
2013-06-18 05:39:00,53.0,41.9,29.90,SW,225,0.0,0.0,67,0.00,,,0.00,WUHU216HW,2013-06-18 11:39:00,
2013-06-18 05:44:00,53.2,41.7,29.90,SW,225,0.0,0.0,65,0.00,,,0.00,WUHU216HW,2013-06-18 11:44:00,
2013-06-18 05:49:00,52.8,41.3,29.90,SW,225,0.0,0.0,65,0.00,,,0.00,WUHU216HW,2013-06-18 11:49:00,
2013-06-18 05:54:00,52.7,41.6,29.90,SW,225,0.0,0.0,66,0.00,,,0.00,WUHU216HW,2013-06-18 11:54:00,
2013-06-18 05:59:00,52.8,41.3,29.90,SW,225,0.0,0.0,65,0.00,,,0.00,WUHU216HW,2013-06-18 11:59:00,
2013-06-18 06:04:00,52.8,41.7,29.89,SW,225,0.0,0.0,66,0.00,,,0.00,WUHU216HW,2013-06-18 12:04:00,
2013-06-18 06:09:00,53.2,41.7,29.89,SW,225,0.0,0.0,65,0.00,,,0.00,WUHU216HW,2013-06-18 12:09:00,
2013-06-18 06:14:00,52.3,41.2,29.89,SW,225,0.0,0.0,66,0.00,,,0.00,WUHU216HW,2013-06-18 12:14:00,
2013-06-18 06:19:00,51.8,41.7,29.89,SW,225,0.0,0.0,68,0.00,,,0.00,WUHU216HW,2013-06-18 12:19:00,
2013-06-18 06:24:00,51.8,41.6,29.89,SW,225,0.0,0.0,68,0.00,,,0.00,WUHU216HW,2013-06-18 12:24:00,
2013-06-18 06:29:00,52.5,41.8,29.89,SW,225,0.0,1.5,67,0.00,,,0.00,WUHU216HW,2013-06-18 12:29:00,
2013-06-18 06:35:00,54.1,42.5,29.89,SW,225,0.0,1.5,65,0.00,,,0.00,WUHU216HW,2013-06-18 12:35:00,
2013-06-18 06:40:00,54.6,42.2,29.89,WSW,248,0.0,0.0,63,0.00,,,0.00,WUHU216HW,2013-06-18 12:40:00,
2013-06-18 06:45:00,54.6,42.4,29.89,WSW,248,0.0,0.0,63,0.00,,,0.00,WUHU216HW,2013-06-18 12:45:00,
2013-06-18 06:50:00,52.3,41.1,29.89,WSW,248,0.0,0.0,66,0.00,,,0.00,WUHU216HW,2013-06-18 12:50:00,
2013-06-18 06:55:00,52.3,41.6,29.90,WSW,248,0.0,0.0,67,0.00,,,0.00,WUHU216HW,2013-06-18 12:55:00,
2013-06-18 07:00:00,51.9,41.6,29.89,WSW,248,0.0,0.0,67,0.00,,,0.00,WUHU216HW,2013-06-18 13:00:00,
2013-06-18 07:05:00,52.3,42.0,29.89,WSW,248,0.0,0.0,68,0.00,,,0.00,WUHU216HW,2013-06-18 13:05:00,
2013-06-18 07:10:00,52.7,42.4,29.89,WSW,248,0.0,0.0,68,0.00,,,0.00,WUHU216HW,2013-06-18 13:10:00,
2013-06-18 07:15:00,53.7,43.2,29.89,WSW,248,2.9,2.9,67,0.00,,,0.00,WUHU216HW,2013-06-18 13:15:00,
2013-06-18 07:20:00,55.2,44.0,29.89,WSW,248,0.0,2.9,66,0.00,,,0.00,WUHU216HW,2013-06-18 13:20:00,
2013-06-18 07:25:00,55.7,44.1,29.90,WSW,248,0.0,2.0,65,0.00,,,0.00,WUHU216HW,2013-06-18 13:25:00,
2013-06-18 07:30:00,56.1,44.2,29.89,WSW,248,0.0,0.0,64,0.00,,,0.00,WUHU216HW,2013-06-18 13:30:00,
2013-06-18 07:35:00,56.4,44.4,29.90,West,270,0.0,0.0,64,0.00,,,0.00,WUHU216HW,2013-06-18 13:35:00,
2013-06-18 07:41:00,56.4,44.4,29.90,West,270,0.0,0.0,64,0.00,,,0.00,WUHU216HW,2013-06-18 13:41:00,
2013-06-18 07:46:00,56.6,44.5,29.90,WSW,248,0.0,0.0,64,0.00,,,0.00,WUHU216HW,2013-06-18 13:46:00,
2013-06-18 07:51:00,56.4,44.4,29.90,West,270,0.0,0.0,64,0.00,,,0.00,WUHU216HW,2013-06-18 13:51:00,
2013-06-18 07:56:00,56.8,44.7,29.90,West,270,0.0,0.0,64,0.00,,,0.00,WUHU216HW,2013-06-18 13:56:00,
2013-06-18 08:01:00,57.5,45.1,29.91,NW,315,0.0,1.7,63,0.00,,,0.00,WUHU216HW,2013-06-18 14:01:00,
2013-06-18 08:06:00,57.5,45.0,29.91,WNW,293,0.0,1.7,63,0.00,,,0.00,WUHU216HW,2013-06-18 14:06:00,
2013-06-18 08:11:00,57.5,45.0,29.91,WNW,293,0.0,0.0,63,0.00,,,0.00,WUHU216HW,2013-06-18 14:11:00,
2013-06-18 08:16:00,58.2,45.6,29.91,WNW,293,0.0,0.0,63,0.00,,,0.00,WUHU216HW,2013-06-18 14:16:00,
2013-06-18 08:21:00,60.4,47.4,29.91,NW,315,0.0,0.0,62,0.00,,,0.00,WUHU216HW,2013-06-18 14:21:00,
2013-06-18 08:26:00,60.4,46.5,29.90,NNW,338,2.6,2.6,60,0.00,,,0.00,WUHU216HW,2013-06-18 14:26:00,
2013-06-18 08:31:00,60.0,46.6,29.91,NNW,338,0.0,2.6,61,0.00,,,0.00,WUHU216HW,2013-06-18 14:31:00,
2013-06-18 08:36:00,60.0,46.6,29.90,West,270,0.0,0.0,61,0.00,,,0.00,WUHU216HW,2013-06-18 14:36:00,
2013-06-18 08:41:00,65.6,49.2,29.90,NW,315,0.0,0.0,57,0.00,,,0.00,WUHU216HW,2013-06-18 14:41:00,
2013-06-18 08:46:00,71.2,51.0,29.91,North,0,0.0,0.0,49,0.00,,,0.00,WUHU216HW,2013-06-18 14:46:00,
2013-06-18 08:51:00,74.1,50.7,29.90,West,270,0.0,6.0,44,0.00,,,0.00,WUHU216HW,2013-06-18 14:51:00,
2013-06-18 08:57:00,75.0,50.9,29.90,NW,315,0.0,6.0,43,0.00,,,0.00,WUHU216HW,2013-06-18 14:57:00,
2013-06-18 09:02:00,73.9,50.1,29.90,NW,315,0.0,1.7,43,0.00,,,0.00,WUHU216HW,2013-06-18 15:02:00,
2013-06-18 09:07:00,75.3,50.0,29.90,North,0,0.0,1.7,41,0.00,,,0.00,WUHU216HW,2013-06-18 15:07:00,
2013-06-18 09:12:00,75.0,50.3,29.90,North,0,0.0,2.0,42,0.00,,,0.00,WUHU216HW,2013-06-18 15:12:00,
2013-06-18 09:17:00,73.2,49.2,29.90,North,0,0.0,5.1,43,0.00,,,0.00,WUHU216HW,2013-06-18 15:17:00,
2013-06-18 09:22:00,74.4,49.8,29.91,NW,315,0.0,5.1,42,0.00,,,0.00,WUHU216HW,2013-06-18 15:22:00,
2013-06-18 09:27:00,76.4,51.5,29.90,West,270,1.7,2.0,41,0.00,,,0.00,WUHU216HW,2013-06-18 15:27:00,
2013-06-18 09:32:00,78.0,51.8,29.90,NW,315,0.0,4.6,40,0.00,,,0.00,WUHU216HW,2013-06-18 15:32:00,
2013-06-18 09:37:00,79.5,50.8,29.90,NW,315,0.0,4.6,37,0.00,,,0.00,WUHU216HW,2013-06-18 15:37:00,
2013-06-18 09:42:00,78.6,50.8,29.90,NW,315,0.8,5.5,38,0.00,,,0.00,WUHU216HW,2013-06-18 15:42:00,
2013-06-18 09:47:00,78.0,51.8,29.90,WNW,293,0.0,5.5,40,0.00,,,0.00,WUHU216HW,2013-06-18 15:47:00,
2013-06-18 09:52:00,79.7,51.7,29.89,NW,315,2.4,2.4,38,0.00,,,0.00,WUHU216HW,2013-06-18 15:52:00,
2013-06-18 09:57:00,79.5,51.6,29.89,NW,315,1.3,2.4,38,0.00,,,0.00,WUHU216HW,2013-06-18 15:57:00,
2013-06-18 10:02:00,79.3,51.4,29.90,NW,315,1.5,2.9,38,0.00,,,0.00,WUHU216HW,2013-06-18 16:02:00,
2013-06-18 10:07:00,76.6,50.5,29.90,NW,315,0.0,2.9,40,0.00,,,0.00,WUHU216HW,2013-06-18 16:07:00,
2013-06-18 10:12:00,80.6,52.5,29.90,NNW,338,0.0,2.6,38,0.00,,,0.00,WUHU216HW,2013-06-18 16:12:00,
2013-06-18 10:18:00,78.9,51.1,29.89,NNW,338,2.2,3.8,38,0.00,,,0.00,WUHU216HW,2013-06-18 16:18:00,
2013-06-18 10:23:00,78.6,51.5,29.90,NW,315,0.0,3.8,39,0.00,,,0.00,WUHU216HW,2013-06-18 16:23:00,
2013-06-18 10:28:00,79.5,51.4,29.90,NNW,338,0.0,1.5,39,0.00,,,0.00,WUHU216HW,2013-06-18 16:28:00,
2013-06-18 10:33:00,81.3,53.2,29.89,NW,315,0.0,0.0,38,0.00,,,0.00,WUHU216HW,2013-06-18 16:33:00,
2013-06-18 10:38:00,79.7,51.7,29.89,NW,315,0.0,0.0,38,0.00,,,0.00,WUHU216HW,2013-06-18 16:38:00,
2013-06-18 10:43:00,78.6,51.5,29.90,NW,315,0.0,1.1,39,0.00,,,0.00,WUHU216HW,2013-06-18 16:43:00,
2013-06-18 10:48:00,77.9,50.9,29.90,North,0,0.0,1.7,39,0.00,,,0.00,WUHU216HW,2013-06-18 16:48:00,
2013-06-18 10:53:00,79.3,52.2,29.90,NW,315,0.0,3.8,38,0.00,,,0.00,WUHU216HW,2013-06-18 16:53:00,
2013-06-18 10:58:00,76.8,49.9,29.90,North,0,4.2,4.2,39,0.00,,,0.00,WUHU216HW,2013-06-18 16:58:00,
2013-06-18 11:03:00,78.6,51.9,29.90,NW,315,2.4,5.3,39,0.00,,,0.00,WUHU216HW,2013-06-18 17:03:00,
2013-06-18 11:08:00,77.7,50.6,29.90,NW,315,0.0,5.3,40,0.00,,,0.00,WUHU216HW,2013-06-18 17:08:00,
2013-06-18 11:14:00,76.8,51.3,29.90,NW,315,1.5,2.4,41,0.00,,,0.00,WUHU216HW,2013-06-18 17:14:00,
2013-06-18 11:19:00,75.7,49.9,29.90,NW,315,2.4,7.6,40,0.00,,,0.00,WUHU216HW,2013-06-18 17:19:00,
2013-06-18 11:24:00,74.1,50.1,29.90,NW,315,0.0,7.6,43,0.00,,,0.00,WUHU216HW,2013-06-18 17:24:00,
2013-06-18 11:29:00,72.6,48.7,29.90,North,0,8.0,8.0,43,0.00,,,0.00,WUHU216HW,2013-06-18 17:29:00,
2013-06-18 11:34:00,71.9,49.9,29.90,NE,45,6.2,8.0,45,0.00,,,0.00,WUHU216HW,2013-06-18 17:34:00,
2013-06-18 11:39:00,73.7,50.3,29.90,North,0,0.6,6.4,44,0.00,,,0.00,WUHU216HW,2013-06-18 17:39:00,
2013-06-18 11:44:00,74.1,50.7,29.90,NW,315,0.0,6.4,44,0.00,,,0.00,WUHU216HW,2013-06-18 17:44:00,
2013-06-18 11:49:00,76.6,51.1,29.90,North,0,6.2,6.2,41,0.00,,,0.00,WUHU216HW,2013-06-18 17:49:00,
2013-06-18 11:54:00,77.7,51.9,29.89,NNW,338,0.0,6.2,40,0.00,,,0.00,WUHU216HW,2013-06-18 17:54:00,
2013-06-18 11:59:00,76.4,49.9,29.90,NW,315,0.0,5.8,40,0.00,,,0.00,WUHU216HW,2013-06-18 17:59:00,
2013-06-18 12:04:00,74.4,49.8,29.90,NW,315,0.0,5.8,43,0.00,,,0.00,WUHU216HW,2013-06-18 18:04:00,
2013-06-18 12:09:00,75.7,50.5,29.89,NW,315,3.1,4.4,40,0.00,,,0.00,WUHU216HW,2013-06-18 18:09:00,
2013-06-18 12:14:00,76.2,51.4,29.89,ENE,68,0.0,4.4,42,0.00,,,0.00,WUHU216HW,2013-06-18 18:14:00,
2013-06-18 12:19:00,78.4,52.1,29.89,NNE,23,0.0,2.9,40,0.00,,,0.00,WUHU216HW,2013-06-18 18:19:00,
2013-06-18 12:24:00,76.2,50.2,29.89,North,0,0.0,4.0,40,0.00,,,0.00,WUHU216HW,2013-06-18 18:24:00,
2013-06-18 12:29:00,75.2,49.8,29.89,NE,45,0.0,4.2,41,0.00,,,0.00,WUHU216HW,2013-06-18 18:29:00,
2013-06-18 12:34:00,73.9,49.3,29.89,NNW,338,2.2,4.2,42,0.00,,,0.00,WUHU216HW,2013-06-18 18:34:00,
2013-06-18 12:39:00,74.4,49.8,29.89,NW,315,1.7,3.3,43,0.00,,,0.00,WUHU216HW,2013-06-18 18:39:00,
2013-06-18 12:45:00,73.2,49.2,29.89,North,0,0.0,10.0,43,0.00,,,0.00,WUHU216HW,2013-06-18 18:45:00,
2013-06-18 12:50:00,72.6,48.2,29.89,North,0,0.0,10.0,42,0.00,,,0.00,WUHU216HW,2013-06-18 18:50:00,
2013-06-18 12:55:00,73.4,49.0,29.89,NNW,338,6.9,6.9,42,0.00,,,0.00,WUHU216HW,2013-06-18 18:55:00,
2013-06-18 13:00:00,73.7,49.7,29.89,NW,315,0.8,6.9,43,0.00,,,0.00,WUHU216HW,2013-06-18 19:00:00,
2013-06-18 13:05:00,75.0,50.3,29.89,NNW,338,0.0,6.2,42,0.00,,,0.00,WUHU216HW,2013-06-18 19:05:00,
2013-06-18 13:10:00,75.9,49.9,29.88,WNW,293,0.0,5.3,40,0.00,,,0.00,WUHU216HW,2013-06-18 19:10:00,
2013-06-18 13:15:00,75.7,49.7,29.89,NW,315,1.5,2.6,40,0.00,,,0.00,WUHU216HW,2013-06-18 19:15:00,
2013-06-18 13:20:00,75.3,49.4,29.88,SW,225,0.0,2.6,40,0.00,,,0.00,WUHU216HW,2013-06-18 19:20:00,
2013-06-18 13:25:00,75.7,50.9,29.88,NW,315,0.0,3.1,42,0.00,,,0.00,WUHU216HW,2013-06-18 19:25:00,
2013-06-18 13:30:00,75.0,50.3,29.88,NW,315,0.0,3.8,42,0.00,,,0.00,WUHU216HW,2013-06-18 19:30:00,
2013-06-18 13:35:00,75.2,50.5,29.88,NNW,338,6.7,6.7,42,0.00,,,0.00,WUHU216HW,2013-06-18 19:35:00,
2013-06-18 13:40:00,74.4,49.8,29.87,North,0,0.0,6.7,42,0.00,,,0.00,WUHU216HW,2013-06-18 19:40:00,
2013-06-18 13:45:00,74.3,50.2,29.87,NNW,338,0.0,4.4,43,0.00,,,0.00,WUHU216HW,2013-06-18 19:45:00,
2013-06-18 13:50:00,76.8,51.3,29.87,WNW,293,0.0,2.9,41,0.00,,,0.00,WUHU216HW,2013-06-18 19:50:00,
2013-06-18 13:55:00,75.9,49.9,29.87,North,0,4.9,7.8,40,0.00,,,0.00,WUHU216HW,2013-06-18 19:55:00,
2013-06-18 14:00:00,75.3,50.6,29.87,NW,315,1.7,7.8,42,0.00,,,0.00,WUHU216HW,2013-06-18 20:00:00,
2013-06-18 14:05:00,76.1,51.3,29.87,North,0,0.8,3.8,42,0.00,,,0.00,WUHU216HW,2013-06-18 20:05:00,
2013-06-18 14:10:00,76.4,51.0,29.87,West,270,0.0,3.5,41,0.00,,,0.00,WUHU216HW,2013-06-18 20:10:00,
2013-06-18 14:16:00,76.2,50.2,29.87,NNW,338,2.2,5.5,40,0.00,,,0.00,WUHU216HW,2013-06-18 20:16:00,
2013-06-18 14:21:00,75.5,50.2,29.87,North,0,5.8,5.8,41,0.00,,,0.00,WUHU216HW,2013-06-18 20:21:00,
2013-06-18 14:26:00,75.0,50.9,29.87,ESE,113,0.0,5.8,43,0.00,,,0.00,WUHU216HW,2013-06-18 20:26:00,
2013-06-18 14:31:00,76.6,51.1,29.85,NW,315,0.0,2.9,41,0.00,,,0.00,WUHU216HW,2013-06-18 20:31:00,
2013-06-18 14:36:00,77.0,51.5,29.86,North,0,0.0,8.0,41,0.00,,,0.00,WUHU216HW,2013-06-18 20:36:00,
2013-06-18 14:41:00,78.4,51.4,29.86,NNW,338,0.0,8.0,39,0.00,,,0.00,WUHU216HW,2013-06-18 20:41:00,
2013-06-18 14:46:00,78.0,51.8,29.85,NNW,338,4.4,4.4,40,0.00,,,0.00,WUHU216HW,2013-06-18 20:46:00,
2013-06-18 14:51:00,77.7,51.5,29.86,NNE,23,1.5,5.8,40,0.00,,,0.00,WUHU216HW,2013-06-18 20:51:00,
2013-06-18 14:56:00,78.6,50.8,29.86,NNE,23,3.8,5.8,38,0.00,,,0.00,WUHU216HW,2013-06-18 20:56:00,
2013-06-18 15:01:00,78.4,52.1,29.85,ENE,68,0.0,5.8,40,0.00,,,0.00,WUHU216HW,2013-06-18 21:01:00,
2013-06-18 15:06:00,78.6,51.5,29.85,North,0,6.2,8.9,39,0.00,,,0.00,WUHU216HW,2013-06-18 21:06:00,
2013-06-18 15:11:00,78.0,50.3,29.85,NNW,338,0.0,8.9,38,0.00,,,0.00,WUHU216HW,2013-06-18 21:11:00,
2013-06-18 15:17:00,80.2,51.9,29.84,North,0,2.9,2.9,38,0.00,,,0.00,WUHU216HW,2013-06-18 21:17:00,
2013-06-18 15:22:00,79.8,51.9,29.85,North,0,2.0,5.8,38,0.00,,,0.00,WUHU216HW,2013-06-18 21:22:00,
2013-06-18 15:27:00,78.9,51.1,29.85,North,0,5.3,5.8,38,0.00,,,0.00,WUHU216HW,2013-06-18 21:27:00,
2013-06-18 15:32:00,78.4,50.6,29.85,NNW,338,0.8,5.3,38,0.00,,,0.00,WUHU216HW,2013-06-18 21:32:00,
2013-06-18 15:37:00,78.6,50.8,29.84,NW,315,0.0,2.9,38,0.00,,,0.00,WUHU216HW,2013-06-18 21:37:00,
2013-06-18 15:42:00,79.5,51.6,29.84,NNE,23,4.0,4.0,38,0.00,,,0.00,WUHU216HW,2013-06-18 21:42:00,
2013-06-18 15:47:00,78.6,50.8,29.84,NNE,23,3.8,6.0,38,0.00,,,0.00,WUHU216HW,2013-06-18 21:47:00,
2013-06-18 15:52:00,79.7,50.8,29.83,NE,45,5.1,6.4,37,0.00,,,0.00,WUHU216HW,2013-06-18 21:52:00,
2013-06-18 15:57:00,80.0,51.3,29.82,NNE,23,4.0,6.4,37,0.00,,,0.00,WUHU216HW,2013-06-18 21:57:00,
2013-06-18 16:02:00,80.4,51.6,29.82,ENE,68,5.3,6.4,37,0.00,,,0.00,WUHU216HW,2013-06-18 22:02:00,
2013-06-18 16:07:00,81.5,51.8,29.81,NE,45,4.9,5.3,36,0.00,,,0.00,WUHU216HW,2013-06-18 22:07:00,
2013-06-18 16:12:00,80.4,51.6,29.82,NNW,338,5.1,5.1,37,0.00,,,0.00,WUHU216HW,2013-06-18 22:12:00,
2013-06-18 16:17:00,82.0,51.4,29.81,North,0,3.1,5.1,35,0.00,,,0.00,WUHU216HW,2013-06-18 22:17:00,
2013-06-18 16:22:00,82.4,51.0,29.81,NW,315,2.0,8.7,34,0.00,,,0.00,WUHU216HW,2013-06-18 22:22:00,
2013-06-18 16:27:00,83.8,53.0,29.81,West,270,0.0,8.7,35,0.00,,,0.00,WUHU216HW,2013-06-18 22:27:00,
2013-06-18 16:32:00,83.1,52.4,29.81,NW,315,0.0,1.7,35,0.00,,,0.00,WUHU216HW,2013-06-18 22:32:00,
2013-06-18 16:37:00,82.2,50.7,29.81,WSW,248,0.0,0.0,34,0.00,,,0.00,WUHU216HW,2013-06-18 22:37:00,
2013-06-18 16:42:00,82.0,51.4,29.80,North,0,6.7,6.7,35,0.00,,,0.00,WUHU216HW,2013-06-18 22:42:00,
2013-06-18 16:47:00,81.5,51.8,29.80,North,0,9.6,9.6,36,0.00,,,0.00,WUHU216HW,2013-06-18 22:47:00,
2013-06-18 16:52:00,81.8,51.3,29.80,NW,315,2.2,9.6,35,0.00,,,0.00,WUHU216HW,2013-06-18 22:52:00,
2013-06-18 16:57:00,83.4,51.9,29.80,WSW,248,0.0,9.3,34,0.00,,,0.00,WUHU216HW,2013-06-18 22:57:00,
2013-06-18 17:02:00,83.1,51.8,29.80,NNW,338,7.3,7.3,34,0.00,,,0.00,WUHU216HW,2013-06-18 23:02:00,
2013-06-18 17:07:00,83.3,52.6,29.80,North,0,2.2,7.3,35,0.00,,,0.00,WUHU216HW,2013-06-18 23:07:00,
2013-06-18 17:13:00,82.0,50.7,29.80,NNE,23,4.6,8.5,34,0.00,,,0.00,WUHU216HW,2013-06-18 23:13:00,
2013-06-18 17:18:00,82.2,51.6,29.80,NNE,23,7.6,8.5,35,0.00,,,0.00,WUHU216HW,2013-06-18 23:18:00,
2013-06-18 17:23:00,82.0,50.7,29.80,NW,315,0.0,7.6,34,0.00,,,0.00,WUHU216HW,2013-06-18 23:23:00,
2013-06-18 17:28:00,82.4,51.0,29.79,NNW,338,0.0,8.5,34,0.00,,,0.00,WUHU216HW,2013-06-18 23:28:00,
2013-06-18 17:33:00,82.2,51.6,29.80,North,0,0.0,8.7,35,0.00,,,0.00,WUHU216HW,2013-06-18 23:33:00,
2013-06-18 17:38:00,83.6,52.1,29.80,NNW,338,5.8,8.7,34,0.00,,,0.00,WUHU216HW,2013-06-18 23:38:00,
2013-06-18 17:43:00,82.9,50.7,29.78,WNW,293,0.0,5.8,33,0.00,,,0.00,WUHU216HW,2013-06-18 23:43:00,
2013-06-18 17:48:00,82.9,50.7,29.78,NNW,338,6.2,8.2,33,0.00,,,0.00,WUHU216HW,2013-06-18 23:48:00,
2013-06-18 17:53:00,81.8,50.5,29.78,North,0,1.7,8.2,34,0.00,,,0.00,WUHU216HW,2013-06-18 23:53:00,
2013-06-18 17:58:00,80.4,50.1,29.78,North,0,1.5,5.1,35,0.00,,,0.00,WUHU216HW,2013-06-18 23:58:00,
2013-06-18 18:03:00,79.3,49.9,29.78,North,0,5.8,6.0,36,0.00,,,0.00,WUHU216HW,2013-06-19 00:03:00,
2013-06-18 18:08:00,78.6,50.0,29.78,ENE,68,0.0,6.0,37,0.00,,,0.00,WUHU216HW,2013-06-19 00:08:00,
2013-06-18 18:13:00,78.2,49.7,29.79,NW,315,0.0,6.9,37,0.00,,,0.00,WUHU216HW,2013-06-19 00:13:00,
2013-06-18 18:18:00,78.0,49.5,29.79,ESE,113,0.0,6.9,37,0.00,,,0.00,WUHU216HW,2013-06-19 00:18:00,
2013-06-18 18:23:00,77.1,49.5,29.79,NE,45,0.0,1.5,38,0.00,,,0.00,WUHU216HW,2013-06-19 00:23:00,
2013-06-18 18:28:00,76.8,49.9,29.79,NE,45,0.0,1.5,39,0.00,,,0.00,WUHU216HW,2013-06-19 00:28:00,
2013-06-18 18:33:00,76.6,49.8,29.79,NNE,23,0.0,0.0,38,0.00,,,0.00,WUHU216HW,2013-06-19 00:33:00,
2013-06-18 18:38:00,75.9,49.1,29.79,NNW,338,0.0,0.0,39,0.00,,,0.00,WUHU216HW,2013-06-19 00:38:00,
2013-06-18 18:43:00,75.3,49.4,29.78,NW,315,0.0,0.0,40,0.00,,,0.00,WUHU216HW,2013-06-19 00:43:00,
2013-06-18 18:48:00,74.8,48.9,29.78,NNE,23,5.8,5.8,40,0.00,,,0.00,WUHU216HW,2013-06-19 00:48:00,
2013-06-18 18:53:00,74.1,48.9,29.78,NNE,23,6.9,6.9,41,0.00,,,0.00,WUHU216HW,2013-06-19 00:53:00,
2013-06-18 18:58:00,73.5,49.0,29.77,North,0,0.0,6.9,42,0.00,,,0.00,WUHU216HW,2013-06-19 00:58:00,
2013-06-18 19:03:00,73.0,48.5,29.78,NNW,338,0.0,5.5,42,0.00,,,0.00,WUHU216HW,2013-06-19 01:03:00,
2013-06-18 19:08:00,72.6,48.7,29.78,NNE,23,2.9,5.8,43,0.00,,,0.00,WUHU216HW,2013-06-19 01:08:00,
2013-06-18 19:13:00,72.1,49.4,29.78,North,0,0.0,5.8,45,0.00,,,0.00,WUHU216HW,2013-06-19 01:13:00,
2013-06-18 19:18:00,70.8,51.8,29.78,SE,135,1.7,2.6,51,0.00,,,0.00,WUHU216HW,2013-06-19 01:18:00,
2013-06-18 19:23:00,67.8,52.4,29.79,SSE,158,4.6,13.8,58,0.00,,,0.00,WUHU216HW,2013-06-19 01:23:00,
2013-06-18 19:29:00,65.4,51.6,29.81,East,90,6.4,13.8,60,0.00,,,0.00,WUHU216HW,2013-06-19 01:29:00,
2013-06-18 19:34:00,63.6,52.0,29.82,WSW,248,0.0,11.4,66,0.00,,,0.00,WUHU216HW,2013-06-19 01:34:00,
2013-06-18 19:39:00,57.9,52.1,29.82,ESE,113,2.0,18.7,81,0.00,,,0.00,WUHU216HW,2013-06-19 01:39:00,
2013-06-18 19:44:00,53.9,49.8,29.82,SSE,158,5.5,18.7,85,0.00,,,0.00,WUHU216HW,2013-06-19 01:44:00,
2013-06-18 19:49:00,53.4,49.6,29.82,SSW,203,2.2,5.5,87,0.00,,,0.00,WUHU216HW,2013-06-19 01:49:00,
2013-06-18 19:54:00,53.4,49.9,29.82,WNW,293,0.0,5.3,88,0.00,,,0.00,WUHU216HW,2013-06-19 01:54:00,
2013-06-18 19:59:00,54.5,51.2,29.83,WSW,248,7.1,10.5,89,0.00,,,0.00,WUHU216HW,2013-06-19 01:59:00,
2013-06-18 20:04:00,54.3,51.1,29.82,North,0,0.0,10.5,89,0.00,,,0.00,WUHU216HW,2013-06-19 02:04:00,
2013-06-18 20:09:00,54.6,51.4,29.82,West,270,0.0,8.5,89,0.00,,,0.00,WUHU216HW,2013-06-19 02:09:00,
2013-06-18 20:14:00,53.9,51.0,29.80,South,180,0.0,7.6,90,0.00,,,0.00,WUHU216HW,2013-06-19 02:14:00,
2013-06-18 20:19:00,53.7,50.9,29.83,SE,135,0.0,5.3,89,0.00,,,0.00,WUHU216HW,2013-06-19 02:19:00,
2013-06-18 20:24:00,54.3,51.4,29.84,South,180,4.0,6.2,90,0.00,,,0.00,WUHU216HW,2013-06-19 02:24:00,
2013-06-18 20:29:00,54.1,51.2,29.84,South,180,2.6,12.9,90,0.00,,,0.00,WUHU216HW,2013-06-19 02:29:00,
2013-06-18 20:34:00,54.1,51.2,29.79,East,90,8.7,12.9,90,0.00,,,0.00,WUHU216HW,2013-06-19 02:34:00,
2013-06-18 20:39:00,53.7,50.9,29.76,SSE,158,0.0,8.7,90,0.00,,,0.00,WUHU216HW,2013-06-19 02:39:00,
2013-06-18 20:44:00,54.1,51.2,29.76,South,180,3.1,6.9,90,0.00,,,0.00,WUHU216HW,2013-06-19 02:44:00,
2013-06-18 20:49:00,54.3,51.7,29.76,SSW,203,0.0,6.9,91,0.00,,,0.00,WUHU216HW,2013-06-19 02:49:00,
2013-06-18 20:54:00,54.8,51.9,29.80,West,270,3.5,6.0,90,0.00,,,0.00,WUHU216HW,2013-06-19 02:54:00,
2013-06-18 20:59:00,54.6,52.0,29.80,SW,225,6.2,8.2,91,0.00,,,0.00,WUHU216HW,2013-06-19 02:59:00,
2013-06-18 21:04:00,54.5,51.9,29.82,WSW,248,4.2,8.5,91,0.00,,,0.00,WUHU216HW,2013-06-19 03:04:00,
2013-06-18 21:09:00,54.5,51.9,29.81,SSW,203,4.4,8.5,91,0.00,,,0.00,WUHU216HW,2013-06-19 03:09:00,
2013-06-18 21:14:00,54.6,52.0,29.80,SSE,158,0.0,4.6,91,0.00,,,0.00,WUHU216HW,2013-06-19 03:14:00,
2013-06-18 21:20:00,54.3,51.7,29.82,East,90,0.0,5.1,91,0.00,,,0.00,WUHU216HW,2013-06-19 03:20:00,
2013-06-18 21:25:00,54.6,52.0,29.81,East,90,0.0,5.1,91,0.00,,,0.00,WUHU216HW,2013-06-19 03:25:00,
2013-06-18 21:30:00,54.3,51.7,29.81,East,90,0.8,0.8,91,0.00,,,0.00,WUHU216HW,2013-06-19 03:30:00,
2013-06-18 21:35:00,54.1,51.5,29.81,SE,135,2.0,4.0,91,0.00,,,0.00,WUHU216HW,2013-06-19 03:35:00,
2013-06-18 21:40:00,53.9,51.5,29.82,SE,135,0.0,6.0,91,0.00,,,0.00,WUHU216HW,2013-06-19 03:40:00,
2013-06-18 21:45:00,54.1,51.5,29.82,SSE,158,0.0,6.0,91,0.00,,,0.00,WUHU216HW,2013-06-19 03:45:00,
2013-06-18 21:50:00,54.3,51.7,29.83,WSW,248,0.0,4.0,91,0.00,,,0.00,WUHU216HW,2013-06-19 03:50:00,
2013-06-18 21:55:00,54.6,52.0,29.84,WSW,248,2.4,4.0,91,0.00,,,0.00,WUHU216HW,2013-06-19 03:55:00,
2013-06-18 22:00:00,54.8,52.2,29.84,West,270,0.0,2.6,91,0.00,,,0.00,WUHU216HW,2013-06-19 04:00:00,
2013-06-18 22:01:00,54.6,52.0,29.84,West,270,0.0,2.6,91,0.00,,,0.00,WUHU216HW,2013-06-19 04:01:00,
2013-06-18 22:02:00,54.6,52.0,29.84,West,270,0.0,2.6,91,0.00,,,0.00,WUHU216HW,2013-06-19 04:02:00,
2013-06-18 22:07:00,54.5,51.9,29.84,West,270,0.0,0.0,91,0.00,,,0.00,WUHU216HW,2013-06-19 04:07:00,
2013-06-18 22:12:00,54.6,52.0,29.84,West,270,0.0,0.0,91,0.00,,,0.00,WUHU216HW,2013-06-19 04:12:00,
2013-06-18 22:17:00,54.6,52.0,29.84,West,270,0.0,2.2,91,0.00,,,0.00,WUHU216HW,2013-06-19 04:17:00,
2013-06-18 22:22:00,54.8,52.2,29.84,West,270,0.0,2.2,91,0.00,,,0.00,WUHU216HW,2013-06-19 04:22:00,
2013-06-18 22:27:00,54.3,51.7,29.84,West,270,0.0,0.0,91,0.00,,,0.00,WUHU216HW,2013-06-19 04:27:00,
2013-06-18 22:32:00,54.3,51.7,29.84,North,0,0.0,0.0,91,0.00,,,0.00,WUHU216HW,2013-06-19 04:32:00,
2013-06-18 22:37:00,54.3,52.0,29.84,West,270,0.0,0.0,92,0.00,,,0.00,WUHU216HW,2013-06-19 04:37:00,
2013-06-18 22:42:00,54.1,51.8,29.84,West,270,0.0,0.0,92,0.00,,,0.00,WUHU216HW,2013-06-19 04:42:00,
2013-06-18 22:47:00,53.7,51.4,29.84,SW,225,0.0,0.0,92,0.00,,,0.00,WUHU216HW,2013-06-19 04:47:00,
2013-06-18 22:52:00,53.7,51.4,29.84,SSW,203,0.0,0.0,92,0.00,,,0.00,WUHU216HW,2013-06-19 04:52:00,
2013-06-18 22:57:00,53.7,51.4,29.83,SSW,203,0.0,0.0,92,0.00,,,0.00,WUHU216HW,2013-06-19 04:57:00,
2013-06-18 23:02:00,53.7,51.2,29.83,SSW,203,0.0,1.7,92,0.00,,,0.00,WUHU216HW,2013-06-19 05:02:00,
2013-06-18 23:07:00,53.4,51.1,29.84,SSW,203,0.0,1.7,92,0.00,,,0.00,WUHU216HW,2013-06-19 05:07:00,
2013-06-18 23:13:00,53.4,51.1,29.84,SSW,203,0.0,0.8,92,0.00,,,0.00,WUHU216HW,2013-06-19 05:13:00,
2013-06-18 23:18:00,53.4,51.1,29.84,SW,225,2.0,2.0,92,0.00,,,0.00,WUHU216HW,2013-06-19 05:18:00,
2013-06-18 23:23:00,53.4,51.1,29.84,SW,225,0.0,2.0,92,0.00,,,0.00,WUHU216HW,2013-06-19 05:23:00,
2013-06-18 23:28:00,53.4,51.1,29.84,SW,225,0.0,2.0,92,0.00,,,0.00,WUHU216HW,2013-06-19 05:28:00,
2013-06-18 23:33:00,53.4,51.1,29.84,SW,225,0.0,1.7,92,0.00,,,0.00,WUHU216HW,2013-06-19 05:33:00,
2013-06-18 23:38:00,53.4,51.1,29.84,SW,225,2.0,2.0,92,0.00,,,0.00,WUHU216HW,2013-06-19 05:38:00,
2013-06-18 23:43:00,53.7,51.2,29.84,SW,225,0.0,2.2,92,0.00,,,0.00,WUHU216HW,2013-06-19 05:43:00,
2013-06-18 23:48:00,53.7,51.4,29.84,SW,225,0.0,2.2,92,0.00,,,0.00,WUHU216HW,2013-06-19 05:48:00,
2013-06-18 23:53:00,53.9,51.6,29.84,SW,225,0.0,0.0,92,0.00,,,0.00,WUHU216HW,2013-06-19 05:53:00,
2013-06-18 23:58:00,53.9,51.6,29.84,SW,225,0.0,0.0,92,0.00,,,0.00,WUHU216HW,2013-06-19 05:58:00,